createdAt,value
2017-10-21T00:00:11.472Z,0
2017-10-21T00:01:11.482Z,0
2017-10-21T00:02:11.206Z,0
2017-10-21T00:03:11.622Z,0
2017-10-21T00:04:12.041Z,0
2017-10-21T00:05:11.481Z,0
2017-10-21T00:06:12.234Z,0
2017-10-21T00:07:11.794Z,0
2017-10-21T00:08:11.770Z,0
2017-10-21T00:09:11.881Z,0
2017-10-21T00:10:11.058Z,0
2017-10-21T00:11:11.358Z,0
2017-10-21T00:12:11.334Z,0
2017-10-21T00:13:11.711Z,0
2017-10-21T00:14:11.311Z,0
2017-10-21T00:15:11.323Z,0
2017-10-21T00:16:11.631Z,0
2017-10-21T00:17:10.938Z,0
2017-10-21T00:18:11.282Z,0
2017-10-21T00:19:11.018Z,0
2017-10-21T00:20:11.251Z,0
2017-10-21T00:21:11.570Z,0
2017-10-21T00:22:11.571Z,0
2017-10-21T00:23:11.206Z,0
2017-10-21T00:24:11.566Z,0
2017-10-21T00:25:11.283Z,0
2017-10-21T00:26:10.842Z,0
2017-10-21T00:27:10.841Z,0
2017-10-21T00:28:10.823Z,0
2017-10-21T00:29:11.138Z,0
2017-10-21T00:30:11.490Z,0
2017-10-21T00:31:11.118Z,0
2017-10-21T00:32:11.120Z,0
2017-10-21T00:33:11.119Z,0
2017-10-21T00:34:11.102Z,0
2017-10-21T00:35:11.075Z,0
2017-10-21T00:36:11.086Z,0
2017-10-21T00:37:10.711Z,0
2017-10-21T00:38:11.039Z,0
2017-10-21T00:39:11.065Z,0
2017-10-21T00:40:11.365Z,0
2017-10-21T00:41:10.666Z,0
2017-10-21T00:42:10.658Z,0
2017-10-21T00:43:10.645Z,0
2017-10-21T00:44:10.634Z,0
2017-10-21T00:45:10.622Z,0
2017-10-21T00:46:11.338Z,0
2017-10-21T00:47:10.949Z,0
2017-10-21T00:48:11.281Z,0
2017-10-21T00:49:10.579Z,0
2017-10-21T00:50:11.271Z,0
2017-10-21T00:51:10.915Z,0
2017-10-21T00:52:11.233Z,0
2017-10-21T00:53:10.534Z,0
2017-10-21T00:54:10.866Z,0
2017-10-21T00:55:10.509Z,0
2017-10-21T00:56:10.841Z,0
2017-10-21T00:57:11.190Z,0
2017-10-21T00:58:11.162Z,0
2017-10-21T00:59:10.808Z,0
2017-10-21T01:00:11.153Z,0
2017-10-21T01:01:10.787Z,0
2017-10-21T01:02:10.791Z,0
2017-10-21T01:03:11.103Z,0
2017-10-21T01:04:10.763Z,0
2017-10-21T01:05:10.745Z,0
2017-10-21T01:06:11.077Z,0
2017-10-21T01:07:10.745Z,0
2017-10-21T01:08:11.067Z,0
2017-10-21T01:09:10.734Z,0
2017-10-21T01:10:11.063Z,0
2017-10-21T01:11:10.338Z,0
2017-10-21T01:12:10.676Z,0
2017-10-21T01:13:10.663Z,0
2017-10-21T01:14:10.645Z,0
2017-10-21T01:15:10.314Z,0
2017-10-21T01:16:10.660Z,0
2017-10-21T01:17:10.281Z,0
2017-10-21T01:18:10.611Z,0
2017-10-21T01:19:10.597Z,0
2017-10-21T01:20:10.239Z,0
2017-10-21T01:21:10.586Z,0
2017-10-21T01:22:10.899Z,0
2017-10-21T01:23:10.566Z,0
2017-10-21T01:24:10.553Z,0
2017-10-21T01:25:10.539Z,0
2017-10-21T01:26:10.181Z,0
2017-10-21T01:27:10.164Z,0
2017-10-21T01:28:10.509Z,0
2017-10-21T01:29:10.866Z,0
2017-10-21T01:30:10.855Z,0
2017-10-21T01:31:10.487Z,0
2017-10-21T01:32:11.132Z,0
2017-10-21T01:33:11.124Z,0
2017-10-21T01:34:11.106Z,0
2017-10-21T01:35:10.077Z,0
2017-10-21T01:36:10.067Z,0
2017-10-21T01:37:10.421Z,0
2017-10-21T01:38:10.396Z,0
2017-10-21T01:39:10.392Z,0
2017-10-21T01:40:10.040Z,0
2017-10-21T01:41:10.357Z,0
2017-10-21T01:42:10.735Z,0
2017-10-21T01:43:10.345Z,0
2017-10-21T01:44:09.983Z,0
2017-10-21T01:45:10.651Z,0
2017-10-21T01:46:10.679Z,0
2017-10-21T01:47:10.287Z,0
2017-10-21T01:48:09.949Z,0
2017-10-21T01:49:10.264Z,0
2017-10-21T01:50:10.272Z,0
2017-10-21T01:51:09.906Z,0
2017-10-21T01:52:09.893Z,0
2017-10-21T01:53:10.241Z,0
2017-10-21T01:54:10.903Z,0
2017-10-21T01:55:10.938Z,0
2017-10-21T01:56:10.537Z,0
2017-10-21T01:57:10.197Z,0
2017-10-21T01:58:10.549Z,0
2017-10-21T01:59:10.192Z,0
2017-10-21T02:00:09.809Z,0
2017-10-21T02:01:10.156Z,0
2017-10-21T02:02:10.132Z,0
2017-10-21T02:03:09.777Z,0
2017-10-21T02:04:10.105Z,0
2017-10-21T02:05:10.098Z,0
2017-10-21T02:06:10.100Z,0
2017-10-21T02:07:10.068Z,0
2017-10-21T02:08:09.720Z,0
2017-10-21T02:09:10.394Z,0
2017-10-21T02:10:10.377Z,0
2017-10-21T02:11:09.688Z,0
2017-10-21T02:12:10.017Z,0
2017-10-21T02:13:10.008Z,0
2017-10-21T02:14:10.008Z,0
2017-10-21T02:15:10.334Z,0
2017-10-21T02:16:09.630Z,0
2017-10-21T02:17:09.639Z,0
2017-10-21T02:18:09.951Z,0
2017-10-21T02:19:10.289Z,0
2017-10-21T02:20:09.940Z,0
2017-10-21T02:21:09.917Z,0
2017-10-21T02:22:09.909Z,0
2017-10-21T02:23:09.555Z,0
2017-10-21T02:24:09.888Z,0
2017-10-21T02:25:09.552Z,0
2017-10-21T02:26:09.877Z,0
2017-10-21T02:27:10.216Z,0
2017-10-21T02:28:10.184Z,0
2017-10-21T02:29:10.526Z,0
2017-10-21T02:30:10.521Z,0
2017-10-21T02:31:09.820Z,0
2017-10-21T02:32:10.197Z,0
2017-10-21T02:33:09.789Z,0
2017-10-21T02:34:09.438Z,0
2017-10-21T02:35:09.828Z,0
2017-10-21T02:36:09.771Z,0
2017-10-21T02:37:09.416Z,0
2017-10-21T02:38:10.080Z,0
2017-10-21T02:39:09.751Z,0
2017-10-21T02:40:09.736Z,0
2017-10-21T02:41:10.057Z,0
2017-10-21T02:42:09.706Z,0
2017-10-21T02:43:10.055Z,0
2017-10-21T02:44:09.706Z,0
2017-10-21T02:45:10.346Z,0
2017-10-21T02:46:09.676Z,0
2017-10-21T02:47:09.317Z,0
2017-10-21T02:48:09.631Z,0
2017-10-21T02:49:09.302Z,0
2017-10-21T02:50:09.624Z,0
2017-10-21T02:51:09.263Z,0
2017-10-21T02:52:09.302Z,0
2017-10-21T02:53:09.235Z,0
2017-10-21T02:54:09.923Z,0
2017-10-21T02:55:09.220Z,0
2017-10-21T02:56:09.220Z,0
2017-10-21T02:57:09.892Z,0
2017-10-21T02:58:09.198Z,0
2017-10-21T02:59:09.519Z,0
2017-10-21T03:00:09.570Z,0
2017-10-21T03:01:09.860Z,0
2017-10-21T03:02:09.502Z,0
2017-10-21T03:03:09.814Z,0
2017-10-21T03:04:09.824Z,0
2017-10-21T03:05:09.453Z,0
2017-10-21T03:06:09.798Z,0
2017-10-21T03:07:09.124Z,0
2017-10-21T03:08:09.413Z,0
2017-10-21T03:09:09.426Z,0
2017-10-21T03:10:10.087Z,0
2017-10-21T03:11:09.380Z,0
2017-10-21T03:12:09.052Z,0
2017-10-21T03:13:09.028Z,0
2017-10-21T03:14:09.361Z,0
2017-10-21T03:15:09.685Z,0
2017-10-21T03:16:09.337Z,0
2017-10-21T03:17:08.977Z,0
2017-10-21T03:18:09.304Z,0
2017-10-21T03:19:09.306Z,0
2017-10-21T03:20:09.299Z,0
2017-10-21T03:21:09.966Z,0
2017-10-21T03:22:09.604Z,0
2017-10-21T03:23:09.382Z,0
2017-10-21T03:24:09.241Z,0
2017-10-21T03:25:09.606Z,0
2017-10-21T03:26:09.224Z,0
2017-10-21T03:27:09.213Z,0
2017-10-21T03:28:09.543Z,0
2017-10-21T03:29:08.855Z,0
2017-10-21T03:30:09.539Z,0
2017-10-21T03:31:09.185Z,0
2017-10-21T03:32:09.495Z,0
2017-10-21T03:33:08.838Z,0
2017-10-21T03:34:08.808Z,0
2017-10-21T03:35:09.147Z,0
2017-10-21T03:36:09.467Z,0
2017-10-21T03:37:09.105Z,0
2017-10-21T03:38:09.441Z,0
2017-10-21T03:39:08.738Z,0
2017-10-21T03:40:08.738Z,0
2017-10-21T03:41:09.398Z,0
2017-10-21T03:42:09.050Z,0
2017-10-21T03:43:09.395Z,0
2017-10-21T03:44:09.040Z,0
2017-10-21T03:45:09.016Z,0
2017-10-21T03:46:09.013Z,0
2017-10-21T03:47:09.352Z,0
2017-10-21T03:48:09.674Z,0
2017-10-21T03:49:09.334Z,0
2017-10-21T03:50:08.964Z,0
2017-10-21T03:51:08.978Z,0
2017-10-21T03:52:08.964Z,0
2017-10-21T03:53:08.932Z,0
2017-10-21T03:54:09.290Z,0
2017-10-21T03:55:08.927Z,0
2017-10-21T03:56:09.233Z,0
2017-10-21T03:57:08.884Z,0
2017-10-21T03:58:08.880Z,0
2017-10-21T03:59:08.874Z,0
2017-10-21T04:00:09.199Z,0
2017-10-21T04:01:08.843Z,0
2017-10-21T04:02:08.842Z,0
2017-10-21T04:03:08.866Z,0
2017-10-21T04:04:08.811Z,0
2017-10-21T04:05:09.141Z,0
2017-10-21T04:06:08.792Z,0
2017-10-21T04:07:09.120Z,0
2017-10-21T04:08:09.108Z,0
2017-10-21T04:09:08.417Z,0
2017-10-21T04:10:08.407Z,0
2017-10-21T04:11:08.737Z,0
2017-10-21T04:12:09.066Z,0
2017-10-21T04:13:09.056Z,0
2017-10-21T04:14:09.050Z,0
2017-10-21T04:15:08.375Z,0
2017-10-21T04:16:08.689Z,0
2017-10-21T04:17:08.332Z,0
2017-10-21T04:18:08.329Z,0
2017-10-21T04:19:08.308Z,0
2017-10-21T04:20:08.304Z,0
2017-10-21T04:21:08.635Z,0
2017-10-21T04:22:08.630Z,0
2017-10-21T04:23:08.975Z,0
2017-10-21T04:24:08.948Z,0
2017-10-21T04:25:08.616Z,0
2017-10-21T04:26:08.235Z,0
2017-10-21T04:27:08.227Z,0
2017-10-21T04:28:08.214Z,0
2017-10-21T04:29:08.541Z,0
2017-10-21T04:30:08.869Z,0
2017-10-21T04:31:08.521Z,0
2017-10-21T04:32:08.522Z,0
2017-10-21T04:33:08.496Z,0
2017-10-21T04:34:08.147Z,0
2017-10-21T04:35:08.816Z,0
2017-10-21T04:36:08.494Z,0
2017-10-21T04:37:08.455Z,0
2017-10-21T04:38:08.446Z,0
2017-10-21T04:39:08.098Z,0
2017-10-21T04:40:08.083Z,0
2017-10-21T04:41:08.753Z,0
2017-10-21T04:42:08.403Z,0
2017-10-21T04:43:08.391Z,0
2017-10-21T04:44:08.053Z,0
2017-10-21T04:45:08.386Z,0
2017-10-21T04:46:08.363Z,0
2017-10-21T04:47:08.006Z,0
2017-10-21T04:48:08.549Z,0
2017-10-21T04:49:08.351Z,0
2017-10-21T04:50:08.657Z,0
2017-10-21T04:51:07.963Z,0
2017-10-21T04:52:07.952Z,0
2017-10-21T04:53:08.288Z,0
2017-10-21T04:54:08.276Z,0
2017-10-21T04:55:07.919Z,0
2017-10-21T04:56:08.249Z,0
2017-10-21T04:57:07.901Z,0
2017-10-21T04:58:08.234Z,0
2017-10-21T04:59:08.584Z,0
2017-10-21T05:00:08.227Z,0
2017-10-21T05:01:08.557Z,0
2017-10-21T05:02:07.849Z,0
2017-10-21T05:03:08.170Z,0
2017-10-21T05:04:08.165Z,0
2017-10-21T05:05:07.810Z,0
2017-10-21T05:06:08.142Z,0
2017-10-21T05:07:08.128Z,0
2017-10-21T05:08:07.782Z,0
2017-10-21T05:09:08.108Z,0
2017-10-21T05:10:07.756Z,0
2017-10-21T05:11:08.102Z,0
2017-10-21T05:12:08.234Z,0
2017-10-21T05:13:07.725Z,0
2017-10-21T05:14:07.714Z,0
2017-10-21T05:15:08.043Z,0
2017-10-21T05:16:08.039Z,0
2017-10-21T05:17:08.040Z,0
2017-10-21T05:18:08.032Z,4
2017-10-21T05:19:08.353Z,4
2017-10-21T05:20:08.330Z,0
2017-10-21T05:21:08.315Z,4
2017-10-21T05:22:07.627Z,8
2017-10-21T05:23:07.967Z,8
2017-10-21T05:24:08.303Z,8
2017-10-21T05:25:07.598Z,8
2017-10-21T05:26:07.928Z,12
2017-10-21T05:27:07.939Z,16
2017-10-21T05:28:07.561Z,16
2017-10-21T05:29:07.555Z,20
2017-10-21T05:30:08.232Z,24
2017-10-21T05:31:07.875Z,24
2017-10-21T05:32:07.860Z,32
2017-10-21T05:33:07.848Z,40
2017-10-21T05:34:07.524Z,48
2017-10-21T05:35:07.724Z,56
2017-10-21T05:36:09.368Z,64
2017-10-21T05:37:08.381Z,76
2017-10-21T05:38:08.044Z,88
2017-10-21T05:39:08.439Z,104
2017-10-21T05:40:07.537Z,112
2017-10-21T05:41:08.089Z,128
2017-10-21T05:42:07.581Z,140
2017-10-21T05:43:07.560Z,152
2017-10-21T05:44:07.598Z,164
2017-10-21T05:45:07.705Z,180
2017-10-21T05:46:07.563Z,192
2017-10-21T05:47:07.507Z,212
2017-10-21T05:48:08.034Z,224
2017-10-21T05:49:07.586Z,236
2017-10-21T05:50:08.351Z,252
2017-10-21T05:51:08.302Z,268
2017-10-21T05:52:08.224Z,292
2017-10-21T05:53:07.842Z,312
2017-10-21T05:54:07.890Z,336
2017-10-21T05:55:08.206Z,356
2017-10-21T05:56:07.533Z,368
2017-10-21T05:57:07.482Z,380
2017-10-21T05:58:07.484Z,392
2017-10-21T05:59:07.508Z,416
2017-10-21T06:00:08.255Z,440
2017-10-21T06:01:07.394Z,468
2017-10-21T06:02:07.482Z,512
2017-10-21T06:03:07.864Z,588
2017-10-21T06:04:07.360Z,676
2017-10-21T06:05:07.391Z,732
2017-10-21T06:06:07.381Z,756
2017-10-21T06:07:07.798Z,788
2017-10-21T06:08:07.692Z,824
2017-10-21T06:09:07.685Z,880
2017-10-21T06:10:07.662Z,960
2017-10-21T06:11:07.724Z,1084
2017-10-21T06:12:08.068Z,1164
2017-10-21T06:13:07.743Z,1192
2017-10-21T06:14:08.036Z,1148
2017-10-21T06:15:07.306Z,1088
2017-10-21T06:16:07.195Z,1052
2017-10-21T06:17:07.168Z,1036
2017-10-21T06:18:07.679Z,1028
2017-10-21T06:19:07.576Z,1032
2017-10-21T06:20:07.798Z,1072
2017-10-21T06:21:07.221Z,1136
2017-10-21T06:22:07.864Z,1232
2017-10-21T06:23:07.541Z,1408
2017-10-21T06:24:07.222Z,1636
2017-10-21T06:25:07.137Z,1864
2017-10-21T06:26:07.521Z,1960
2017-10-21T06:27:07.833Z,1960
2017-10-21T06:28:07.182Z,1888
2017-10-21T06:29:07.252Z,1784
2017-10-21T06:30:06.890Z,1664
2017-10-21T06:31:07.567Z,1560
2017-10-21T06:32:07.223Z,1512
2017-10-21T06:33:07.546Z,1512
2017-10-21T06:34:07.213Z,1564
2017-10-21T06:35:07.535Z,1712
2017-10-21T06:36:07.180Z,1904
2017-10-21T06:37:07.181Z,2052
2017-10-21T06:38:07.157Z,2016
2017-10-21T06:39:07.484Z,1836
2017-10-21T06:40:06.808Z,1608
2017-10-21T06:41:07.454Z,1464
2017-10-21T06:42:07.122Z,1432
2017-10-21T06:43:07.121Z,1492
2017-10-21T06:44:06.763Z,1612
2017-10-21T06:45:07.421Z,1740
2017-10-21T06:46:07.063Z,1860
2017-10-21T06:47:07.390Z,2008
2017-10-21T06:48:06.701Z,2164
2017-10-21T06:49:07.369Z,2368
2017-10-21T06:50:06.679Z,2468
2017-10-21T06:51:07.026Z,2344
2017-10-21T06:52:06.665Z,2164
2017-10-21T06:53:07.011Z,1996
2017-10-21T06:54:06.995Z,1872
2017-10-21T06:55:06.979Z,1832
2017-10-21T06:56:06.958Z,1868
2017-10-21T06:57:07.309Z,1944
2017-10-21T06:58:06.943Z,2020
2017-10-21T06:59:06.621Z,2088
2017-10-21T07:00:07.260Z,2196
2017-10-21T07:01:07.270Z,2328
2017-10-21T07:02:06.583Z,2432
2017-10-21T07:03:06.916Z,2496
2017-10-21T07:04:07.217Z,2556
2017-10-21T07:05:06.903Z,2576
2017-10-21T07:06:06.859Z,2620
2017-10-21T07:07:06.505Z,2664
2017-10-21T07:08:07.537Z,2732
2017-10-21T07:09:06.487Z,2848
2017-10-21T07:10:06.503Z,2964
2017-10-21T07:11:07.164Z,3072
2017-10-21T07:12:06.797Z,3136
2017-10-21T07:13:06.449Z,3168
2017-10-21T07:14:07.167Z,3208
2017-10-21T07:15:06.437Z,3200
2017-10-21T07:16:06.760Z,3096
2017-10-21T07:17:07.102Z,2980
2017-10-21T07:18:06.738Z,2856
2017-10-21T07:19:06.415Z,2864
2017-10-21T07:20:06.727Z,3004
2017-10-21T07:21:06.738Z,3156
2017-10-21T07:22:07.230Z,3148
2017-10-21T07:23:06.727Z,3132
2017-10-21T07:24:06.339Z,3108
2017-10-21T07:25:06.671Z,3200
2017-10-21T07:26:06.319Z,3420
2017-10-21T07:27:06.661Z,3820
2017-10-21T07:28:06.644Z,4440
2017-10-21T07:29:06.778Z,4816
2017-10-21T07:30:06.284Z,4920
2017-10-21T07:31:06.643Z,4808
2017-10-21T07:32:06.710Z,4176
2017-10-21T07:33:06.603Z,3812
2017-10-21T07:34:06.612Z,3652
2017-10-21T07:35:06.592Z,3808
2017-10-21T07:36:06.571Z,4104
2017-10-21T07:37:06.219Z,4220
2017-10-21T07:38:06.230Z,4104
2017-10-21T07:39:06.535Z,4084
2017-10-21T07:40:06.873Z,4052
2017-10-21T07:41:06.537Z,4016
2017-10-21T07:42:06.548Z,4000
2017-10-21T07:43:07.211Z,4048
2017-10-21T07:44:06.149Z,4196
2017-10-21T07:45:06.488Z,4324
2017-10-21T07:46:06.141Z,4340
2017-10-21T07:47:06.478Z,4128
2017-10-21T07:48:06.121Z,3852
2017-10-21T07:49:06.453Z,3636
2017-10-21T07:50:06.775Z,3480
2017-10-21T07:51:06.770Z,3380
2017-10-21T07:52:06.757Z,3392
2017-10-21T07:53:06.069Z,3616
2017-10-21T07:54:06.398Z,4084
2017-10-21T07:55:06.739Z,4716
2017-10-21T07:56:06.722Z,5308
2017-10-21T07:57:06.377Z,5704
2017-10-21T07:58:06.041Z,5692
2017-10-21T07:59:06.218Z,5552
2017-10-21T08:00:06.400Z,5536
2017-10-21T08:01:06.347Z,5708
2017-10-21T08:02:06.325Z,5944
2017-10-21T08:03:06.325Z,6108
2017-10-21T08:04:05.974Z,6088
2017-10-21T08:05:05.980Z,5896
2017-10-21T08:06:05.970Z,5696
2017-10-21T08:07:06.656Z,5496
2017-10-21T08:08:06.626Z,5328
2017-10-21T08:09:05.943Z,5092
2017-10-21T08:10:06.259Z,4716
2017-10-21T08:11:05.910Z,4464
2017-10-21T08:12:05.924Z,4384
2017-10-21T08:13:05.891Z,4364
2017-10-21T08:14:05.889Z,4240
2017-10-21T08:15:06.221Z,3992
2017-10-21T08:16:06.211Z,3772
2017-10-21T08:17:05.856Z,3592
2017-10-21T08:18:06.189Z,3440
2017-10-21T08:19:06.559Z,3396
2017-10-21T08:20:05.831Z,3444
2017-10-21T08:21:06.177Z,3484
2017-10-21T08:22:06.855Z,3492
2017-10-21T08:23:05.807Z,3520
2017-10-21T08:24:06.140Z,3576
2017-10-21T08:25:06.808Z,3608
2017-10-21T08:26:05.800Z,3572
2017-10-21T08:27:05.769Z,3444
2017-10-21T08:28:06.130Z,3228
2017-10-21T08:29:05.752Z,2984
2017-10-21T08:30:06.087Z,2780
2017-10-21T08:31:06.428Z,2716
2017-10-21T08:32:06.080Z,2848
2017-10-21T08:33:06.151Z,3100
2017-10-21T08:34:06.403Z,3348
2017-10-21T08:35:06.045Z,3456
2017-10-21T08:36:06.037Z,3408
2017-10-21T08:37:06.370Z,3328
2017-10-21T08:38:05.673Z,3324
2017-10-21T08:39:06.023Z,3392
2017-10-21T08:40:05.661Z,3504
2017-10-21T08:41:05.651Z,3716
2017-10-21T08:42:06.674Z,3872
2017-10-21T08:43:05.995Z,3980
2017-10-21T08:44:05.683Z,4176
2017-10-21T08:45:05.954Z,4408
2017-10-21T08:46:05.609Z,4644
2017-10-21T08:47:05.598Z,4728
2017-10-21T08:48:05.936Z,4804
2017-10-21T08:49:05.593Z,5028
2017-10-21T08:50:06.604Z,5472
2017-10-21T08:51:05.561Z,5820
2017-10-21T08:52:06.239Z,6340
2017-10-21T08:53:05.545Z,6888
2017-10-21T08:54:05.879Z,7324
2017-10-21T08:55:05.531Z,7660
2017-10-21T08:56:05.885Z,7640
2017-10-21T08:57:05.514Z,7376
2017-10-21T08:58:05.846Z,7012
2017-10-21T08:59:05.512Z,6420
2017-10-21T09:00:05.489Z,5956
2017-10-21T09:01:05.831Z,5880
2017-10-21T09:02:05.481Z,6048
2017-10-21T09:03:05.462Z,6228
2017-10-21T09:04:05.477Z,6456
2017-10-21T09:05:05.447Z,6552
2017-10-21T09:06:06.124Z,6648
2017-10-21T09:07:06.113Z,6888
2017-10-21T09:08:05.767Z,6724
2017-10-21T09:09:05.797Z,6616
2017-10-21T09:10:05.407Z,6092
2017-10-21T09:11:05.742Z,5384
2017-10-21T09:12:06.412Z,5176
2017-10-21T09:13:06.088Z,4980
2017-10-21T09:14:05.719Z,4956
2017-10-21T09:15:06.062Z,4892
2017-10-21T09:16:06.060Z,4948
2017-10-21T09:17:06.032Z,5188
2017-10-21T09:18:06.056Z,5156
2017-10-21T09:19:05.341Z,4812
2017-10-21T09:20:05.672Z,4264
2017-10-21T09:21:06.358Z,3928
2017-10-21T09:22:05.653Z,4236
2017-10-21T09:23:05.332Z,5064
2017-10-21T09:24:05.663Z,6020
2017-10-21T09:25:05.301Z,6812
2017-10-21T09:26:05.641Z,7084
2017-10-21T09:27:05.295Z,7272
2017-10-21T09:28:05.615Z,7220
2017-10-21T09:29:05.989Z,6916
2017-10-21T09:30:05.943Z,6400
2017-10-21T09:31:05.589Z,5852
2017-10-21T09:32:05.923Z,5764
2017-10-21T09:33:05.243Z,5896
2017-10-21T09:34:05.222Z,6156
2017-10-21T09:35:05.245Z,6300
2017-10-21T09:36:05.207Z,6116
2017-10-21T09:37:05.547Z,6092
2017-10-21T09:38:05.559Z,6540
2017-10-21T09:39:05.531Z,7028
2017-10-21T09:40:06.200Z,7292
2017-10-21T09:41:05.166Z,7332
2017-10-21T09:42:06.182Z,7104
2017-10-21T09:43:05.156Z,6580
2017-10-21T09:44:05.491Z,5764
2017-10-21T09:45:05.482Z,4952
2017-10-21T09:46:05.133Z,4324
2017-10-21T09:47:05.467Z,3896
2017-10-21T09:48:05.130Z,3648
2017-10-21T09:49:05.455Z,3348
2017-10-21T09:50:05.113Z,3068
2017-10-21T09:51:05.803Z,2808
2017-10-21T09:52:05.102Z,2528
2017-10-21T09:53:05.423Z,2400
2017-10-21T09:54:05.074Z,2336
2017-10-21T09:55:05.416Z,2288
2017-10-21T09:56:05.079Z,2304
2017-10-21T09:57:05.053Z,2384
2017-10-21T09:58:05.734Z,2364
2017-10-21T09:59:05.759Z,2580
2017-10-21T10:00:05.378Z,2660
2017-10-21T10:01:05.362Z,2696
2017-10-21T10:02:05.014Z,2744
2017-10-21T10:03:05.346Z,2832
2017-10-21T10:04:04.998Z,2788
2017-10-21T10:05:05.673Z,2760
2017-10-21T10:06:04.986Z,2708
2017-10-21T10:07:05.316Z,2704
2017-10-21T10:08:04.968Z,2688
2017-10-21T10:09:05.365Z,2656
2017-10-21T10:10:05.296Z,2628
2017-10-21T10:11:05.630Z,2584
2017-10-21T10:12:04.942Z,2580
2017-10-21T10:13:05.621Z,2504
2017-10-21T10:14:04.925Z,2560
2017-10-21T10:15:05.260Z,2608
2017-10-21T10:16:05.263Z,2636
2017-10-21T10:17:04.898Z,2576
2017-10-21T10:18:04.897Z,2572
2017-10-21T10:19:05.630Z,2640
2017-10-21T10:20:04.888Z,2732
2017-10-21T10:21:04.876Z,2724
2017-10-21T10:22:05.565Z,2684
2017-10-21T10:23:05.892Z,2700
2017-10-21T10:24:05.557Z,2668
2017-10-21T10:25:04.846Z,2632
2017-10-21T10:26:05.177Z,2568
2017-10-21T10:27:05.182Z,2520
2017-10-21T10:28:05.574Z,2456
2017-10-21T10:29:05.172Z,2372
2017-10-21T10:30:04.811Z,2488
2017-10-21T10:31:05.824Z,2488
2017-10-21T10:32:05.136Z,2484
2017-10-21T10:33:05.136Z,2488
2017-10-21T10:34:04.782Z,2260
2017-10-21T10:35:05.128Z,2428
2017-10-21T10:36:05.109Z,2416
2017-10-21T10:37:05.479Z,2588
2017-10-21T10:38:04.757Z,2460
2017-10-21T10:39:04.766Z,2388
2017-10-21T10:40:04.743Z,2600
2017-10-21T10:41:04.736Z,2700
2017-10-21T10:42:05.418Z,2768
2017-10-21T10:43:04.720Z,2792
2017-10-21T10:44:05.067Z,2720
2017-10-21T10:45:04.712Z,2700
2017-10-21T10:46:05.051Z,2536
2017-10-21T10:47:04.711Z,2412
2017-10-21T10:48:05.031Z,2352
2017-10-21T10:49:05.362Z,2484
2017-10-21T10:50:05.027Z,2428
2017-10-21T10:51:05.035Z,2488
2017-10-21T10:52:05.350Z,2476
2017-10-21T10:53:04.654Z,2220
2017-10-21T10:54:04.988Z,2200
2017-10-21T10:55:05.364Z,2228
2017-10-21T10:56:05.315Z,2248
2017-10-21T10:57:04.631Z,2316
2017-10-21T10:58:04.664Z,2384
2017-10-21T10:59:05.299Z,2632
2017-10-21T11:00:05.643Z,2708
2017-10-21T11:01:04.945Z,2712
2017-10-21T11:02:04.595Z,2728
2017-10-21T11:03:04.952Z,3088
2017-10-21T11:04:04.952Z,3576
2017-10-21T11:05:04.578Z,3808
2017-10-21T11:06:04.909Z,5072
2017-10-21T11:07:04.906Z,5080
2017-10-21T11:08:04.557Z,5084
2017-10-21T11:09:04.554Z,5364
2017-10-21T11:10:04.543Z,4872
2017-10-21T11:11:04.555Z,5520
2017-10-21T11:12:04.555Z,6004
2017-10-21T11:13:04.876Z,6400
2017-10-21T11:14:04.524Z,6136
2017-10-21T11:15:04.852Z,6248
2017-10-21T11:16:04.854Z,7180
2017-10-21T11:17:05.185Z,7324
2017-10-21T11:18:04.846Z,6956
2017-10-21T11:19:04.832Z,8152
2017-10-21T11:20:04.851Z,7800
2017-10-21T11:21:04.486Z,7856
2017-10-21T11:22:04.471Z,7440
2017-10-21T11:23:04.466Z,6112
2017-10-21T11:24:04.488Z,6372
2017-10-21T11:25:04.802Z,6368
2017-10-21T11:26:04.469Z,7232
2017-10-21T11:27:04.790Z,8428
2017-10-21T11:28:04.447Z,8064
2017-10-21T11:29:04.781Z,7096
2017-10-21T11:30:04.789Z,6956
2017-10-21T11:31:04.419Z,6484
2017-10-21T11:32:04.449Z,7292
2017-10-21T11:33:04.413Z,6468
2017-10-21T11:34:04.742Z,6384
2017-10-21T11:35:04.418Z,5872
2017-10-21T11:36:04.732Z,6136
2017-10-21T11:37:04.386Z,7124
2017-10-21T11:38:04.724Z,8256
2017-10-21T11:39:04.372Z,8400
2017-10-21T11:40:04.378Z,7236
2017-10-21T11:41:04.702Z,7780
2017-10-21T11:42:05.043Z,7040
2017-10-21T11:43:05.054Z,7900
2017-10-21T11:44:04.684Z,8172
2017-10-21T11:45:04.346Z,7640
2017-10-21T11:46:04.721Z,7964
2017-10-21T11:47:04.353Z,6808
2017-10-21T11:48:05.035Z,6864
2017-10-21T11:49:05.004Z,7600
2017-10-21T11:50:05.377Z,6848
2017-10-21T11:51:04.311Z,6484
2017-10-21T11:52:05.356Z,6644
2017-10-21T11:53:04.987Z,7944
2017-10-21T11:54:04.639Z,8176
2017-10-21T11:55:04.630Z,8360
2017-10-21T11:56:04.631Z,8180
2017-10-21T11:57:04.286Z,8060
2017-10-21T11:58:04.977Z,8264
2017-10-21T11:59:04.611Z,8220
2017-10-21T12:00:04.608Z,7760
2017-10-21T12:01:04.603Z,7932
2017-10-21T12:02:04.276Z,6876
2017-10-21T12:03:04.600Z,6940
2017-10-21T12:04:04.265Z,6840
2017-10-21T12:05:04.581Z,7376
2017-10-21T12:06:04.584Z,8188
2017-10-21T12:07:04.569Z,6832
2017-10-21T12:08:04.575Z,6364
2017-10-21T12:09:04.218Z,7168
2017-10-21T12:10:04.214Z,7328
2017-10-21T12:11:04.556Z,7376
2017-10-21T12:12:04.213Z,7676
2017-10-21T12:13:04.541Z,6436
2017-10-21T12:14:04.212Z,6452
2017-10-21T12:15:04.225Z,6676
2017-10-21T12:16:05.217Z,6204
2017-10-21T12:17:04.526Z,5332
2017-10-21T12:18:04.522Z,6216
2017-10-21T12:19:04.863Z,6012
2017-10-21T12:20:04.191Z,5500
2017-10-21T12:21:04.171Z,6408
2017-10-21T12:22:04.502Z,7120
2017-10-21T12:23:04.831Z,7180
2017-10-21T12:24:05.167Z,7272
2017-10-21T12:25:04.514Z,6708
2017-10-21T12:26:04.487Z,5656
2017-10-21T12:27:04.488Z,5980
2017-10-21T12:28:04.474Z,7384
2017-10-21T12:29:04.816Z,7080
2017-10-21T12:30:04.474Z,6892
2017-10-21T12:31:05.135Z,7232
2017-10-21T12:32:04.117Z,6572
2017-10-21T12:33:04.457Z,5760
2017-10-21T12:34:04.453Z,5516
2017-10-21T12:35:04.434Z,5516
2017-10-21T12:36:04.431Z,5284
2017-10-21T12:37:04.436Z,4724
2017-10-21T12:38:04.779Z,4320
2017-10-21T12:39:04.096Z,4084
2017-10-21T12:40:04.076Z,3628
2017-10-21T12:41:04.421Z,3244
2017-10-21T12:42:04.414Z,2772
2017-10-21T12:43:04.418Z,2524
2017-10-21T12:44:04.050Z,2696
2017-10-21T12:45:04.735Z,2784
2017-10-21T12:46:04.383Z,2992
2017-10-21T12:47:04.383Z,2772
2017-10-21T12:48:04.046Z,2768
2017-10-21T12:49:04.364Z,2776
2017-10-21T12:50:04.362Z,2660
2017-10-21T12:51:04.389Z,2748
2017-10-21T12:52:04.349Z,2556
2017-10-21T12:53:04.361Z,2336
2017-10-21T12:54:05.059Z,2552
2017-10-21T12:55:04.339Z,3396
2017-10-21T12:56:04.328Z,3940
2017-10-21T12:57:03.981Z,3564
2017-10-21T12:58:03.978Z,2892
2017-10-21T12:59:04.672Z,2352
2017-10-21T13:00:04.308Z,2192
2017-10-21T13:01:04.692Z,2764
2017-10-21T13:02:04.654Z,3136
2017-10-21T13:03:04.306Z,3284
2017-10-21T13:04:04.632Z,3232
2017-10-21T13:05:04.280Z,3288
2017-10-21T13:06:04.274Z,3400
2017-10-21T13:07:03.935Z,3488
2017-10-21T13:08:04.264Z,3420
2017-10-21T13:09:04.255Z,3200
2017-10-21T13:10:04.620Z,2932
2017-10-21T13:11:04.256Z,2884
2017-10-21T13:12:04.579Z,3012
2017-10-21T13:13:04.270Z,2952
2017-10-21T13:14:04.230Z,2884
2017-10-21T13:15:04.592Z,2996
2017-10-21T13:16:03.874Z,3368
2017-10-21T13:17:03.879Z,3736
2017-10-21T13:18:04.551Z,4568
2017-10-21T13:19:03.864Z,5408
2017-10-21T13:20:04.537Z,5936
2017-10-21T13:21:04.208Z,6052
2017-10-21T13:22:03.855Z,5964
2017-10-21T13:23:04.221Z,5832
2017-10-21T13:24:04.175Z,5808
2017-10-21T13:25:03.827Z,5296
2017-10-21T13:26:04.167Z,4820
2017-10-21T13:27:03.815Z,4704
2017-10-21T13:28:04.855Z,5692
2017-10-21T13:29:03.804Z,7388
2017-10-21T13:30:03.801Z,7732
2017-10-21T13:31:04.485Z,6684
2017-10-21T13:32:04.125Z,5336
2017-10-21T13:33:03.807Z,4056
2017-10-21T13:34:03.776Z,3892
2017-10-21T13:35:03.772Z,3776
2017-10-21T13:36:03.777Z,4296
2017-10-21T13:37:04.447Z,4540
2017-10-21T13:38:03.765Z,3980
2017-10-21T13:39:04.459Z,3444
2017-10-21T13:40:03.746Z,3472
2017-10-21T13:41:04.096Z,3752
2017-10-21T13:42:04.102Z,4364
2017-10-21T13:43:03.729Z,4352
2017-10-21T13:44:04.413Z,3800
2017-10-21T13:45:04.063Z,2904
2017-10-21T13:46:04.062Z,2248
2017-10-21T13:47:04.405Z,1848
2017-10-21T13:48:03.723Z,1944
2017-10-21T13:49:04.038Z,2260
2017-10-21T13:50:03.707Z,2704
2017-10-21T13:51:04.381Z,3408
2017-10-21T13:52:03.678Z,3368
2017-10-21T13:53:04.036Z,3200